KZROInput File - 15012401/22/2015 6:59:34 PM
STimeDurCatCodeINENameArtist
00:01:0003:45105DA606102CNight FlightLed Zeppelin
00:02:0001:01COMNG2896WW1 Net A SpotWESTWOOD ONE
00:04:0001:01COMNF2895WW1 Net B SpotWESTWOOD ONE
00:06:0006:00COMDALIVEI06:00 StopSet
00:06:0000:05COMVO109500FZLNR-STOPSETZ100FM
00:06:0000:40CADA116900FTHE FIFTH SEASONThe Fifth Season
00:06:0001:00CADA102000FTACO BELL/KFCTaco Bell/KFC
00:06:0000:59CADA501100FELITE REAL ESTATEElite Real Estate
00:06:0001:00CADA102400FBROOKS AUTOMOTIVEBrooks Complete Automotive
00:06:0000:59COMVO289600NET SPOT A
00:06:0001:00COMDA101200FWKDYSHOPRNITEZ100FM Promo
00:06:0000:10COMVO100100FPM LNGBLK SWPZ100FM
00:10:0004:11104DA307325CIn BloomNirvana
00:14:0004:14105DA623500CCliffs Of DoverJohnson, Eric
00:18:0000:15COMVO110200FZ-PM TransitionZ100FM
00:19:0004:37107DA884604FGirls, Girls, GirlsMotley Crue
00:23:0002:11103DA240509CTushZZ Top
00:26:0000:15COMVO110200FZ-PM TransitionZ100FM
00:27:0005:00110DA040930CSolitudeBlack Sabbath
00:30:0001:00COMNB2904WW1 Net Newsbreak BZ100FM/WW1 NEWS
00:31:0005:50105DA624314CSilent LucidityQueensryche
00:35:0006:00COMDALIVEI35:00 StopSet
00:35:0000:05COMVO109500FZLNR-STOPSETZ100FM
00:35:0000:05COMDA100600FZ-WW1NEWS BDZ100FM-WW1 News
00:35:0000:59COMDA290400WW1 NEWSBREAK
00:35:0000:43CADA116500FEXPRESS EMPLOYMENT PROF.Express Employment Professionals
00:35:0000:30CADA102700FRADD/DRUNK DRIVING PSAAd Council-RADD+RAB
00:35:0000:59COMVO289500NET SPOT B
00:40:0000:01COMVO112100FZ-WEATHERZChannel Radio
00:40:0000:29ATWEAX00CZ-WX
00:40:0001:00COMDA101200FWKDYSHOPRNITEZ100FM Promo
00:40:0000:10COMVO100100FPM LNGBLK SWPZ100FM
00:44:0009:05114DA003606Out On The TilesBlack Crowes/Jimmy Page
00:48:0000:15COMVO110200FZ-PM TransitionZ100FM
00:49:0010:37111DA017500FA Quick One, While He's Away [Live]Who, The
00:57:0001:36106DA767500CEruptionVan Halen
00:57:0003:41110DA050307FMessin' The BluesTrower, Robin
*00:58:00COMVO107400F58:00 KZRO/CR Legal IDZ100FM
01:01:0003:50112DA027400FSidewinderMontrose
01:02:0001:01COMNG2896WW1 Net A SpotWESTWOOD ONE
01:04:0001:01COMNF2895WW1 Net B SpotWESTWOOD ONE
01:06:0006:00COMDALIVEI06:00 StopSet
01:06:0000:05COMVO109500FZLNR-STOPSETZ100FM
01:06:0000:30CADA105000FELLIS BROOKS HONDAEllis Brooks Honda
01:06:0001:00CADA110800FTHE CHIMNEY DOCTORThe Chimney Doctor
01:06:0001:00CADA103700FSAY CHEESE PIZZASay Cheese Pizza
01:06:0000:42CADA110500CJOHN'S SAT/RADIO SHACKJohn's Satellite
01:06:0001:00CADA109700FMERCY MEDICAL CENTERMercy Medical Center
01:06:0000:59COMVO289600NET SPOT A
01:06:0001:00COMDA101200FWKDYSHOPRNITEZ100FM Promo
01:06:0000:10COMVO100100FPM LNGBLK SWPZ100FM
01:10:0004:45110DA048802FSailin' Cross/Devil's Sea [live]Allman Brothers, The
01:14:0004:03104DA300307FComing Of AgeDamn Yankees
01:18:0000:15COMVO110200FZ-PM TransitionZ100FM
01:19:0004:56111DA007800FBattle Of Evermore [Live]Heart
01:23:0005:54105DA494132FSimple ManLynyrd Skynyrd
01:26:0000:15COMVO110200FZ-PM TransitionZ100FM
01:27:0003:52109DA015507FHeavenWarrant
01:30:0001:00COMNB2904WW1 Net Newsbreak BZ100FM/WW1 NEWS
01:31:0004:42105DA647218CDown And Dirty (Edited LP Version)Bad Company
01:35:0006:00COMDALIVEI35:00 StopSet
01:35:0000:05COMVO109500FZLNR-STOPSETZ100FM
01:35:0000:05COMDA100600FZ-WW1NEWS BDZ100FM-WW1 News
01:35:0000:59COMDA290400WW1 NEWSBREAK
01:35:0000:30CADA118600FMEEKSMeeks
01:35:0000:59COMVO289500NET SPOT B
01:40:0000:01COMVO112100FZ-WEATHERZChannel Radio
01:40:0000:29ATWEAX00CZ-WX
01:40:0001:00COMDA101200FWKDYSHOPRNITEZ100FM Promo
01:40:0000:10COMVO100100FPM LNGBLK SWPZ100FM
01:41:0019:05110DA053744FDark Side Of The Moon (Side 1)Pink Floyd
01:57:0003:56107DA912721C18 And LifeSkid Row
*01:58:00COMVO107300F58:00 KZRO/CR Legal IDshortZ100FM
02:01:0004:14112DA017029FSuperstitionBeck, Bogart & Appice
02:02:0001:01COMNG2896WW1 Net A SpotWESTWOOD ONE
02:04:0001:01COMNF2895WW1 Net B SpotWESTWOOD ONE
02:06:0006:00COMDALIVEI06:00 StopSet
02:06:0000:05COMVO109500FZLNR-STOPSETZ100FM
02:06:0000:42CADA110500CJOHN'S SAT/RADIO SHACKJohn's Satellite
02:06:0001:00CADA110700FSISKIYOU ICE RINKSiskiyou Ice Rink
02:06:0000:44CADA509200FROUND TABLE BUFFETRound Table Buffet
02:06:0000:41CADA103500FSEARS/YREKASears/Yreka
02:06:0000:35CADA102100FSTATE FARM INSURANCERuss Porterfield Insurance
02:06:0000:59COMVO289600NET SPOT A
02:06:0001:00COMDA101200FWKDYSHOPRNITEZ100FM Promo
02:06:0000:10COMVO100100FPM LNGBLK SWPZ100FM
02:10:0003:29103DA251731CAre You Gonna Go My WayLenny Kravitz
02:14:0003:57107DA908000CI Alone [Album Version]Live
02:18:0000:15COMVO110200FZ-PM TransitionZ100FM
02:19:0004:07107DA893546CMore Human Than HumanWhite Zombie
02:23:0004:59105DA644517CBig EmptyStone Temple Pilots
02:26:0000:15COMVO110200FZ-PM TransitionZ100FM
02:27:0005:08109DA041416FHowlin' For My BabyThorogood, George
02:30:0001:00COMNB2904WW1 Net Newsbreak BZ100FM/WW1 NEWS
02:31:0004:24109DA028715FCall It What You WantTesla
02:35:0006:00COMDALIVEI35:00 StopSet
02:35:0000:05COMVO109500FZLNR-STOPSETZ100FM
02:35:0000:05COMDA100600FZ-WW1NEWS BDZ100FM-WW1 News
02:35:0000:59COMDA290400WW1 NEWSBREAK
02:35:0000:39CADA116000FMT.SHASTA VAPEMt. Shasta Vape
02:35:0000:30CADA102700FRADD/DRUNK DRIVING PSAAd Council-RADD+RAB
02:35:0000:59COMVO289500NET SPOT B
02:40:0000:01COMVO112100FZ-WEATHERZChannel Radio
02:40:0000:29ATWEAX00CZ-WX
02:40:0001:00COMDA101200FWKDYSHOPRNITEZ100FM Promo
02:40:0000:10COMVO100100FPM LNGBLK SWPZ100FM
02:41:0011:54114DA016428FI'm A Man[Live] Tanglewood Lenox MAChicago
02:48:0000:15COMVO110200FZ-PM TransitionZ100FM
02:49:0005:44111DA008201FSunday Bloody Sunday [Live]U2
02:52:0003:26112DA031719FDrowningStabbing Westward
02:57:0003:34112DA034423FHeroinAlice In Chains
*02:58:00COMVO107400F58:00 KZRO/CR Legal IDZ100FM
03:01:0003:58109DA035612FCat's In The CradleUgly Kid Joe
03:02:0001:01COMNG2896WW1 Net A SpotWESTWOOD ONE
03:04:0001:01COMNF2895WW1 Net B SpotWESTWOOD ONE
03:06:0006:00COMDALIVEI06:00 StopSet
03:06:0000:05COMVO109500FZLNR-STOPSETZ100FM
03:06:0001:00CADA102000FTACO BELL/KFCTaco Bell/KFC
03:06:0001:00CADA109700FMERCY MEDICAL CENTERMercy Medical Center
03:06:0001:00CADA102400FBROOKS AUTOMOTIVEBrooks Complete Automotive
03:06:0000:30CADA102800FNORTHLAND CABLE CO.Northland Communications
03:06:0000:59COMVO289600NET SPOT A
03:06:0001:00COMDA101200FWKDYSHOPRNITEZ100FM Promo
03:06:0000:10COMVO100100FPM LNGBLK SWPZ100FM
03:10:0003:13109DA034417FThe LumberjackJackyl
03:14:0002:38112DA029027FMisty MountainSilver Apples, The
03:18:0000:15COMVO110200FZ-PM TransitionZ100FM
03:19:0003:38105DA515410FI Love It LoudKiss
03:23:0005:53112DA043800FZep/Beatles Whole Lotta Helter SkelterMASHUP-Led Zep vs. The Beatles
03:26:0000:15COMVO110200FZ-PM TransitionZ100FM
03:27:0005:03103DA222923FArmageddon ItDef Leppard
03:30:0001:00COMNB2904WW1 Net Newsbreak BZ100FM/WW1 NEWS
03:31:0005:23110DA042118FSnow Blind [live]Styx
03:35:0006:00COMDALIVEI35:00 StopSet
03:35:0000:05COMVO109500FZLNR-STOPSETZ100FM
03:35:0000:05COMDA100600FZ-WW1NEWS BDZ100FM-WW1 News
03:35:0000:59COMDA290400WW1 NEWSBREAK
03:35:0000:30CADA118600FMEEKSMeeks
03:35:0000:43CADA116500FEXPRESS EMPLOYMENT PROF.Express Employment Professionals
03:35:0000:59COMVO289500NET SPOT B
03:40:0000:01COMVO112100FZ-WEATHERZChannel Radio
03:40:0000:29ATWEAX00CZ-WX
03:40:0001:00COMDA101200FWKDYSHOPRNITEZ100FM Promo
03:40:0000:10COMVO100100FPM LNGBLK SWPZ100FM
03:41:0013:51112DA041809FAnd You And I [Live/Symphonic/Amsterdam]Yes
03:44:0000:15COMVO110200FZ-PM TransitionZ100FM
03:48:0006:23112DA006401FHooked On MusicPat Travers Band
03:57:0004:50106DA696200FFreeway JamJeff Beck
*03:58:00COMVO107300F58:00 KZRO/CR Legal IDshortZ100FM
04:01:0005:34110DA047711FThat's The WayLed Zeppelin
04:02:0001:01COMNG2896WW1 Net A SpotWESTWOOD ONE
04:04:0001:01COMNF2895WW1 Net B SpotWESTWOOD ONE
04:06:0006:00COMDALIVEI06:00 StopSet
04:06:0000:05COMVO109500FZLNR-STOPSETZ100FM
04:06:0000:30CADA105000FELLIS BROOKS HONDAEllis Brooks Honda
04:06:0000:60CADA102200FCOSCollege of the Siskiyous
04:06:0001:00CADA103800FTM ESCROW+NOTARYTM Escrow And Notary
04:06:0001:00CADA110800FTHE CHIMNEY DOCTORThe Chimney Doctor
04:06:0000:59COMVO289600NET SPOT A
04:06:0001:00COMDA101200FWKDYSHOPRNITEZ100FM Promo
04:06:0000:10COMVO100100FPM LNGBLK SWPZ100FM
04:10:0004:11104DA306909CLithiumNirvana
04:14:0004:13114DA003713Black Dog [Acoustic]Black Crowes/Jimmy Page
04:18:0000:15COMVO110200FZ-PM TransitionZ100FM
04:19:0004:46107DA884548FDr. FeelgoodMotley Crue
04:23:0003:29112DA341500FEddie Clips On David LettermanVan Halen, Eddie
04:26:0000:15COMVO110200FZ-PM TransitionZ100FM
04:27:0004:25109DA031426FYou're Invited (But Your Friend Can't Come)Neil, Vince
04:30:0001:00COMNB2904WW1 Net Newsbreak BZ100FM/WW1 NEWS
04:31:0004:06110DA046900CFluffBlack Sabbath
04:35:0006:00COMDALIVEI35:00 StopSet
04:35:0000:05COMVO109500FZLNR-STOPSETZ100FM
04:35:0000:05COMDA100600FZ-WW1NEWS BDZ100FM-WW1 News
04:35:0000:59COMDA290400WW1 NEWSBREAK
04:35:0000:40CADA116900FTHE FIFTH SEASONThe Fifth Season
04:35:0000:30CADA102700FRADD/DRUNK DRIVING PSAAd Council-RADD+RAB
04:35:0000:59COMVO289500NET SPOT B
04:40:0000:01COMVO112100FZ-WEATHERZChannel Radio
04:40:0000:29ATWEAX00CZ-WX
04:40:0001:00COMDA101200FWKDYSHOPRNITEZ100FM Promo
04:40:0000:10COMVO100100FPM LNGBLK SWPZ100FM
04:41:0008:34111DA010543FWon't Get Fooled Again [LiveKB]The Who
04:44:0000:15COMVO110200FZ-PM TransitionZ100FM
04:48:0005:08109DA015309FHeaded For A HeartbreakWinger
04:52:0005:20106DA764362FThe ZooScorpions, The
04:57:0005:11110DA051016FI Can't Wait Much LongerTrower, Robin
*04:58:00COMVO107400F58:00 KZRO/CR Legal IDZ100FM
05:01:0006:01112DA013674FFight To The FinishGamma
05:02:0001:01COMNG2896WW1 Net A SpotWESTWOOD ONE
05:04:0001:01COMNF2895WW1 Net B SpotWESTWOOD ONE
05:06:0006:00COMDALIVEI06:00 StopSet
05:06:0000:05COMVO109500FZLNR-STOPSETZ100FM
05:06:0001:00CADA110700FSISKIYOU ICE RINKSiskiyou Ice Rink
05:06:0000:59CADA501100FELITE REAL ESTATEElite Real Estate
05:06:0001:00CADA103700FSAY CHEESE PIZZASay Cheese Pizza
05:06:0000:60CADA102200FCOSCollege of the Siskiyous
05:06:0000:59COMVO289600NET SPOT A
05:06:0001:00COMDA101200FWKDYSHOPRNITEZ100FM Promo
05:06:0000:10COMVO100100FPM LNGBLK SWPZ100FM
05:10:0002:59112DA044814FLet Me Entertain YouQueen
05:14:0003:21106DA667731CWhat Kind Of Love Are You OnAerosmith
05:18:0000:15COMVO110200FZ-PM TransitionZ100FM
05:19:0005:12111DA007622FRock And Roll [Live]Heart
05:23:0005:53109DA018999FHouse Of Broken LoveGreat White
05:26:0000:15COMVO110200FZ-PM TransitionZ100FM
05:27:0003:44110DA037100FR&R Music To The WorldTen Years After
05:30:0001:00COMNB2904WW1 Net Newsbreak BZ100FM/WW1 NEWS
05:31:0003:23109DA034300FFriendsSatriani, Joe
05:35:0006:00COMDALIVEI35:00 StopSet
05:35:0000:05COMVO109500FZLNR-STOPSETZ100FM
05:35:0000:05COMDA100600FZ-WW1NEWS BDZ100FM-WW1 News
05:35:0000:59COMDA290400WW1 NEWSBREAK
05:35:0000:41CADA103500FSEARS/YREKASears/Yreka
05:35:0000:39CADA116000FMT.SHASTA VAPEMt. Shasta Vape
05:35:0000:59COMVO289500NET SPOT B
05:40:0000:01COMVO112100FZ-WEATHERZChannel Radio
05:40:0000:29ATWEAX00CZ-WX
05:40:0001:00COMDA101200FWKDYSHOPRNITEZ100FM Promo
05:40:0000:10COMVO100100FPM LNGBLK SWPZ100FM
05:41:0005:32104DA300216CCome AgainDamn Yankees
05:44:0005:25105DA555401FYoung Lust [Live]Pink Floyd
05:48:0000:15COMVO110200FZ-PM TransitionZ100FM
05:49:0005:35105DA624231CShe Talks To AngelsBlack Crowes
05:52:0004:08109DA018524FDevolution Workin' Man BluesAlarm, The
05:57:0004:04107DA924029FFool For Your StockingsZZ Top
*05:58:00COMVO107300F58:00 KZRO/Legal ID CLSXZ100FM
06:00:0653:51521DA000100The Car Show
06:00:30COMVO109500FZLnr-StopsetZ100FM
06:02:0001:01COMNG2896WW1 Net A SpotWESTWOOD ONE
06:02:0006:00COMDALIVEI02:00 StopSet
06:02:0000:30CADA118600FMEEKSMeeks
06:02:0000:39CADA116000FMT.SHASTA VAPEMt. Shasta Vape
06:02:0000:44CADA509200FROUND TABLE BUFFETRound Table Buffet
06:02:0000:59COMVO289600NET SPOT A
06:04:0001:01COMNF2895WW1 Net B SpotWESTWOOD ONE
06:05:0000:05COMDA100600FZ-WW1NEWS BDZ100FM-WW1 News
06:05:0000:59COMDA290400WW1 NEWSBREAK
06:05:0000:15CADA117500FBURGER EXPRESS/WXBurger Express
06:05:0000:30COMVO112000FZ-WEATHERZ100fm Weather
06:05:0000:29ATWEAX00CZ-WX
06:05:0001:00COMVO100900FWKND SHOPROMOZ100FM
06:30:0001:00COMNB2904WW1 Net Newsbreak BZ100FM/WW1 NEWS
07:00:00COMVO107300FKZRO/Legal ID CLSXZ100FM
07:00:3000:33COMDA333000FHouse of Blues PromoElwood Blues
07:02:0001:01COMNG2896WW1 Net A SpotWESTWOOD ONE
07:02:0019:41500DA000100DClark's RRR H1/T1
07:04:0001:01COMNF2895WW1 Net B SpotWESTWOOD ONE
07:15:0002:00COMDALIVEI15:00 StopSet
07:15:0000:05COMVO101300FQUICK-ZZ100FM
07:16:0001:00CADA110700FSISKIYOU ICE RINKSiskiyou Ice Rink
07:16:0000:59COMVO289600NET SPOT A
07:16:0000:30COMVO109100FZ DAYTIME SWPZ-CHANNEL RADIO
07:17:0013:27500DA000200DClark's RRR H1/T2
07:30:0001:00COMNB2904WW1 Net Newsbreak BZ100FM/WW1 NEWS
07:35:0001:00COMDALIVEI35:00 StopSet
07:35:0000:05COMVO101300FQUICK-ZZ100FM
07:35:0000:30CADA118600FMEEKSMeeks
07:35:0000:39CADA116000FMT.SHASTA VAPEMt. Shasta Vape
07:35:0000:05COMVO101300FQUICK-ZZ100FM
07:36:0016:29500DA000300DClark's RRR H1/T3
07:45:0003:00COMDALIVEI45:00 StopSet
07:45:0000:05COMVO101300FQUICK-ZZ100FM
07:45:0000:30CADA105000FELLIS BROOKS HONDAEllis Brooks Honda
07:45:0000:42CADA110500CJOHN'S SAT/RADIO SHACKJohn's Satellite
07:47:0003:41500DA000400DClark's RRR H1/T4
07:50:0000:05COMDA100600FZ-WW1NEWS BDZ100FM-WW1 News
07:50:0000:59COMDA290400WW1 NEWSBREAK
07:50:0000:15CADA505200FELLIE'S ESPRESSO/WXEllie's Expresso+Bakery
07:50:0000:30COMVO112000FZ-WEATHERZ100fm Weather
07:50:0000:29ATWEAX00CZ-WX
07:50:0000:30COMVO109100FZ DAYTIME SWPZ-CHANNEL RADIO
08:00:00COMVO107300FKZRO/Legal ID CLSXZ100FM
08:00:3000:41COMDA332300FAmer.Hit List PromoMachine Gun Kelly
08:02:0001:01COMNG2896WW1 Net A SpotWESTWOOD ONE
08:02:0019:02501DA000100DClark's RRR H2/T1
08:04:0001:01COMNF2895WW1 Net B SpotWESTWOOD ONE
08:15:0002:00COMDALIVEI15:00 StopSet
08:15:0000:05COMVO101300FQUICK-ZZ100FM
08:16:0000:40CADA116900FTHE FIFTH SEASONThe Fifth Season
08:16:0000:60CADA102200FCOSCollege of the Siskiyous
08:16:0000:59COMVO289600NET SPOT A
08:16:0000:30COMVO109100FZ DAYTIME SWPZ-CHANNEL RADIO
08:17:0013:29501DA000200DClark's RRR H2/T2
08:30:0001:00COMNB2904WW1 Net Newsbreak BZ100FM/WW1 NEWS
08:35:0001:00COMDALIVEI35:00 StopSet
08:35:0000:05COMVO101300FQUICK-ZZ100FM
08:35:0001:00CADA102400FBROOKS AUTOMOTIVEBrooks Complete Automotive
08:35:0000:05COMVO101300FQUICK-ZZ100FM
08:36:0016:36501DA000300DClark's RRR H2/T3
08:45:0003:00COMDALIVEI45:00 StopSet
08:45:0000:05COMVO101300FQUICK-ZZ100FM
08:45:0000:30CADA105000FELLIS BROOKS HONDAEllis Brooks Honda
08:45:0000:41CADA103500FSEARS/YREKASears/Yreka
08:47:0004:10501DA000400DClark's RRR H2/T4
08:50:0000:05COMDA100600FZ-WW1NEWS BDZ100FM-WW1 News
08:50:0000:59COMDA290400WW1 NEWSBREAK
08:50:0000:10CADA503300FBLACK BUTTE AUTO/WXBlack Butte Towing
08:50:0000:30COMVO112000FZ-WEATHERZ100fm Weather
08:50:0000:29ATWEAX00CZ-WX
08:50:0000:30COMVO109100FZ DAYTIME SWPZ-CHANNEL RADIO
09:00:00COMVO107300FKZRO/Legal ID CLSXZ100FM
09:00:3000:33COMDA333200FThe Classics PromoSteve Downes
09:01:0000:10CADA549300FELITE/DCRRR OPENElite Real Estate
09:02:0001:01COMNG2896WW1 Net A SpotWESTWOOD ONE
09:02:0017:06502DA000100DClark's RRR H3/T1
09:04:0001:01COMNF2895WW1 Net B SpotWESTWOOD ONE
09:15:0002:00COMDALIVEI15:00 StopSet
09:15:0000:05COMVO101300FQUICK-ZZ100FM
09:16:0000:59CADA501100FELITE REAL ESTATEElite Real Estate
09:16:0000:59COMVO289600NET SPOT A
09:16:0000:30COMVO109100FZ DAYTIME SWPZ-CHANNEL RADIO
09:17:0018:22502DA000200DClark's RRR H3/T2
09:30:0001:00COMNB2904WW1 Net Newsbreak BZ100FM/WW1 NEWS
09:35:0001:00COMDALIVEI35:00 StopSet
09:35:0000:05COMVO101300FQUICK-ZZ100FM
09:35:0000:44CADA509200FROUND TABLE BUFFETRound Table Buffet
09:35:0000:05COMVO101300FQUICK-ZZ100FM
09:36:0013:06502DA000300DClark's RRR H3/T3
09:45:0003:00COMDALIVEI45:00 StopSet
09:45:0000:05COMVO101300FQUICK-ZZ100FM
09:45:0000:42CADA110500CJOHN'S SAT/RADIO SHACKJohn's Satellite
09:45:0000:43CADA116500FEXPRESS EMPLOYMENT PROF.Express Employment Professionals
09:47:0004:35502DA000400DClark's RRR H3/T4
09:50:0000:05COMDA100600FZ-WW1NEWS BDZ100FM-WW1 News
09:50:0000:59COMDA290400WW1 NEWSBREAK
09:50:0000:15CADA109900FSOUL CONNECTIONSSoul Connection
09:50:0000:30COMVO112000FZ-WEATHERZ100fm Weather
09:50:0000:29ATWEAX00CZ-WX
09:50:0000:30COMVO109100FZ DAYTIME SWPZ-CHANNEL RADIO
10:00:00COMVO107300FKZRO/Legal ID CLSXZ100FM
10:00:3000:40COMDA332700FBeatle Years PromoBob Mallick
10:02:0001:01COMNG2896WW1 Net A SpotWESTWOOD ONE
10:02:0016:23503DA000100DClark's RRR H4/T1
10:04:0001:01COMNF2895WW1 Net B SpotWESTWOOD ONE
10:15:0002:00COMDALIVEI15:00 StopSet
10:15:0000:05COMVO101300FQUICK-ZZ100FM
10:16:0001:00CADA103700FSAY CHEESE PIZZASay Cheese Pizza
10:16:0000:59COMVO289600NET SPOT A
10:16:0000:30COMVO109100FZ DAYTIME SWPZ-CHANNEL RADIO
10:17:0016:16503DA000200DClark's RRR H4/T2
10:30:0001:00COMNB2904WW1 Net Newsbreak BZ100FM/WW1 NEWS
10:35:0001:00COMDALIVEI35:00 StopSet
10:35:0000:05COMVO101300FQUICK-ZZ100FM
10:35:0001:00CADA102400FBROOKS AUTOMOTIVEBrooks Complete Automotive
10:35:0000:05COMVO101300FQUICK-ZZ100FM
10:36:0016:48503DA000300DClark's RRR H4/T3
10:45:0003:00COMDALIVEI45:00 StopSet
10:45:0000:05COMVO101300FQUICK-ZZ100FM
10:47:0003:48503DA000400DClark's RRR H4/T4
10:50:0000:41CADA103500FSEARS/YREKASears/Yreka
10:50:0000:05COMDA100600FZ-WW1NEWS BDZ100FM-WW1 News
10:50:0000:59COMDA290400WW1 NEWSBREAK
10:50:0000:15CADA118000FDECLERCK ENTERPRISESTaco Bell WX
10:50:0000:30COMVO112000FZ-WEATHERZ100fm Weather
10:50:0000:29ATWEAX00CZ-WX
10:50:0000:30COMVO109100FZ DAYTIME SWPZ-CHANNEL RADIO
11:00:00COMVO107300FKZRO/Legal ID CLSXZ100FM
11:00:3000:33COMDA333000FHouse of Blues PromoElwood Blues
11:01:0000:04CADA493700FELLIS BROOKS/BTL YRS OPNEllis Brooks Honda
11:02:0001:01COMNG2896WW1 Net A SpotWESTWOOD ONE
11:02:0013:40504DA000100Beatle Years T1
11:04:0001:01COMNF2895WW1 Net B SpotWESTWOOD ONE
11:15:0002:30COMDALIVEI15:00 StopSet
11:15:0000:05COMVO101300FQUICK-ZZ100FM
11:16:0000:30CADA105000FELLIS BROOKS HONDAEllis Brooks Honda
11:16:0000:42CADA110500CJOHN'S SAT/RADIO SHACKJohn's Satellite
11:16:0000:59COMVO289600NET SPOT A
11:16:0000:30COMVO109100FZ DAYTIME SWPZ-CHANNEL RADIO
11:18:0015:38504DA000200Beatle Years
11:25:0001:30COMDALIVEIT2 25:00 StopSet
11:25:0000:05COMVO101300FQUICK-ZZ100FM
11:25:0001:00CADA110700FSISKIYOU ICE RINKSiskiyou Ice Rink
11:25:0000:30COMVO109100FZ DAYTIME SWPZ-CHANNEL RADIO
11:27:0012:02504DA000300Beatle Years T3
11:30:0001:00COMNB2904WW1 Net Newsbreak BZ100FM/WW1 NEWS
11:48:0003:00COMDALIVEI48:00 StopSet
11:48:0000:05COMVO101300FQUICK-ZZ100FM
11:48:0000:30CADA118600FMEEKSMeeks
11:50:0000:05COMDA100600FZ-WW1NEWS BDZ100FM-WW1 News
11:50:0000:59COMDA290400WW1 NEWSBREAK
11:50:0000:12CADA568800FMT.SHASTA PASTRYMt.Shasta Pastry
11:50:0000:30COMVO112000FZ-WEATHERZ100fm Weather
11:50:0000:29ATWEAX00CZ-WX
11:50:0000:30COMVO109100FZ DAYTIME SWPZ-CHANNEL RADIO
11:51:0011:21504DA000400Beatle Years T4
11:55:0001:00COMDALIVEI55:00 StopSet
12:00:00COMVO107300FKZRO/Legal ID CLSXZ100FM
12:00:3000:41COMDA332300FAmer. Hit List PromoMachine Gun Kelly
12:01:0000:05CADA492300FJOHN'S SAT/HOB 12 OPENJohn's Satellite/Radio Shack
12:01:0000:11COMVO106100FELWOOD LINERElwood Blues
12:02:0001:01COMNG2896WW1 Net A SpotWESTWOOD ONE
12:02:0016:22505DA000100House of Blues T1
12:04:0001:01COMNF2895WW1 Net B SpotWESTWOOD ONE
12:15:0002:00COMDALIVEI15:00 StopSet
12:15:0000:05COMVO101300FQUICK-ZZ100FM
12:16:0000:42CADA110500CJOHN'S SAT/RADIO SHACKJohn's Satellite
12:16:0000:45CADA106800FGREEN HEART COLLECTIVEGreen Heart Collective
12:16:0001:00CADA110800FTHE CHIMNEY DOCTORThe Chimney Doctor
12:16:0000:05COMVO101300FQUICK-ZZ100FM
12:16:0000:11COMVO106100FELWOOD LINERElwood Blues
12:17:0016:05505DA000200House of Blues T2
12:30:0001:00COMNB2904WW1 Net Newsbreak BZ100FM/WW1 NEWS
12:35:0001:00COMDALIVEI35:00 StopSet
12:35:0000:05COMVO101300FQUICK-ZZ100FM
12:35:0001:00CADA109700FMERCY MEDICAL CENTERMercy Medical Center
12:35:0000:05COMVO101300FQUICK-ZZ100FM
12:35:0000:11COMVO106100FELWOOD LINERElwood Blues
12:36:0016:52505DA000300House of Blues T3
12:47:0003:00COMDALIVEI47:00 StopSet
12:47:0000:05COMVO101300FQUICK-ZZ100FM
12:47:0000:43CADA116500FEXPRESS EMPLOYMENT PROF.Express Employment Professionals
12:47:0000:35CADA102100FSTATE FARM INSURANCERuss Porterfield Insurance
12:50:0000:05COMDA100600FZ-WW1NEWS BDZ100FM-WW1 News
12:50:0000:59COMDA290400WW1 NEWSBREAK
12:50:0000:15CADA117500FBURGER EXPRESS/WXBurger Express
12:50:0000:30COMVO112000FZ-WEATHERZ100fm Weather
12:50:0000:29ATWEAX00CZ-WX
12:50:0000:05COMVO101300FQUICK-ZZ100FM
12:50:0000:11COMVO106100FELWOOD LINERElwood Blues
12:51:0004:25505DA000400House of Blues T4
13:00:00COMVO107300FKZRO/Legal ID CLSXZ100FM
13:01:0000:03COMVO107700FMGK LINERMachine Gun Kelly
13:02:0001:01COMNG2896WW1 Net A SpotWESTWOOD ONE
13:02:0023:05506DA000100AHL H1/T1
13:04:0001:01COMNF2895WW1 Net B SpotWESTWOOD ONE
13:15:0002:00COMDALIVEI15:00 StopSet
13:15:0000:05COMVO101300FQUICK-ZZ100FM
13:16:0001:00CADA102400FBROOKS AUTOMOTIVEBrooks Complete Automotive
13:16:0000:59COMVO289600NET SPOT A
13:16:0000:30COMVO109100FZ DAYTIME SWPZ-CHANNEL RADIO
13:16:0000:03COMVO107700FMGK LINERMachine Gun Kelly
13:17:0016:37506DA000200AHL H1/T2
13:30:0001:00COMNB2904WW1 Net Newsbreak BZ100FM/WW1 NEWS
13:30:0001:00COMDALIVEI30:00 StopSet
13:30:0000:05COMVO101300FQUICK-ZZ100FM
13:30:0000:30CADA118600FMEEKSMeeks
13:30:0000:30CADA102800FNORTHLAND CABLE CO.Northland Communications
13:30:0000:30COMVO109100FZ DAYTIME SWPZ-CHANNEL RADIO
13:30:0000:03COMVO107700FMGK LINERMachine Gun Kelly
13:31:0012:48506DA000300AHL H1/T3
13:40:0002:30COMDALIVEI40:00 StopSet
13:40:0000:05COMVO101300FQUICK-ZZ100FM
13:40:0001:00CADA110800FTHE CHIMNEY DOCTORThe Chimney Doctor
13:50:0000:05COMDA100600FZ-WW1NEWS BDZ100FM-WW1 News
13:50:0000:59COMDA290400WW1 NEWSBREAK
13:50:0000:15CADA104500FLAKE SHASTINA GOLF/WXLake Shastina Golf Resort
13:50:0000:30COMVO112000FZ-WEATHERZ100fm Weather
13:50:0000:29ATWEAX00CZ-WX
13:50:0000:05COMVO101300FQUICK-ZZ100FM
14:00:00COMVO107300FKZRO/Legal ID CLSXZ100FM
14:00:3000:33COMDA333200FThe Classics PromoSteve Downes
14:01:0000:05CADA514300FSISQ.ICE RINK CHL/2P OPNSiskiyou Ice Rink
14:01:0000:03COMVO107700FMGK LINERMachine Gun Kelly
14:02:0001:01COMNG2896WW1 Net A SpotWESTWOOD ONE
14:02:0021:42507DA000100AHL H2/T1
14:04:0001:01COMNF2895WW1 Net B SpotWESTWOOD ONE
14:15:0002:00COMDALIVEI15:00 StopSet
14:15:0000:05COMVO101300FQUICK-ZZ100FM
14:16:0001:00CADA110700FSISKIYOU ICE RINKSiskiyou Ice Rink
14:16:0000:59COMVO289600NET SPOT A
14:16:0000:30COMVO109100FZ DAYTIME SWPZ-CHANNEL RADIO
14:16:0000:03COMVO107700FMGK LINERMachine Gun Kelly
14:17:0015:01507DA000200AHL H2/T2
14:30:0001:00COMNB2904WW1 Net Newsbreak BZ100FM/WW1 NEWS
14:30:0001:00COMDALIVEI30:00 StopSet
14:30:0000:05COMVO101300FQUICK-ZZ100FM
14:30:0000:44CADA509200FROUND TABLE BUFFETRound Table Buffet
14:30:0000:30COMVO109100FZ DAYTIME SWPZ-CHANNEL RADIO
14:30:0000:03COMVO107700FMGK LINERMachine Gun Kelly
14:31:0019:29507DA000300AHL H2/T3
14:40:0002:30COMDALIVEI40:00 StopSet
14:40:0000:05COMVO101300FQUICK-ZZ100FM
14:40:0000:40CADA116900FTHE FIFTH SEASONThe Fifth Season
14:40:0000:30CADA118600FMEEKSMeeks
14:50:0000:05COMDA100600FZ-WW1NEWS BDZ100FM-WW1 News
14:50:0000:59COMDA290400WW1 NEWSBREAK
14:50:0000:15CADA118000FDECLERCK ENTERPRISESTaco Bell WX
14:50:0000:30COMVO112000FZ-WEATHERZ100fm Weather
14:50:0000:29ATWEAX00CZ-WX
14:50:0000:05COMVO101300FQUICK-ZZ100FM
15:00:00COMVO107300FKZRO/Legal ID CLSXZ100FM
15:00:3000:33COMDA333200FThe Classics PromoSteve Downes
15:01:0000:03COMVO107700FMGK LINERMachine Gun Kelly
15:02:0001:01COMNG2896WW1 Net A SpotWESTWOOD ONE
15:02:0019:03508DA000100AHL H3/T1
15:04:0001:01COMNF2895WW1 Net B SpotWESTWOOD ONE
15:15:0002:00COMDALIVEI15:00 StopSet
15:15:0000:05COMVO101300FQUICK-ZZ100FM
15:16:0001:00CADA103700FSAY CHEESE PIZZASay Cheese Pizza
15:16:0000:59COMVO289600NET SPOT A
15:16:0000:30COMVO109100FZ DAYTIME SWPZ-CHANNEL RADIO
15:16:0000:03COMVO107700FMGK LINERMachine Gun Kelly
15:17:0016:25508DA000200AHL H3/T2
15:30:0001:00COMNB2904WW1 Net Newsbreak BZ100FM/WW1 NEWS
15:30:0001:00COMDALIVEI30:00 StopSet
15:30:0000:05COMVO101300FQUICK-ZZ100FM
15:30:0000:43CADA116500FEXPRESS EMPLOYMENT PROF.Express Employment Professionals
15:30:0000:45CADA106800FGREEN HEART COLLECTIVEGreen Heart Collective
15:30:0000:30COMVO109100FZ DAYTIME SWPZ-CHANNEL RADIO
15:30:0000:03COMVO107700FMGK LINERMachine Gun Kelly
15:31:0013:20508DA000300AHL H3/T3
15:40:0002:30COMDALIVEI40:00 StopSet
15:40:0000:05COMVO101300FQUICK-ZZ100FM
15:40:0000:59CADA501100FELITE REAL ESTATEElite Real Estate
15:43:0003:20508DA000400AHL H3/T4
15:50:0000:05COMDA100600FZ-WW1NEWS BDZ100FM-WW1 News
15:50:0000:59COMDA290400WW1 NEWSBREAK
15:50:0000:15CADA109900FSOUL CONNECTIONSSoul Connection
15:50:0000:30COMVO112000FZ-WEATHERZ100fm Weather
15:50:0000:29ATWEAX00CZ-WX
15:50:0000:05COMVO101300FQUICK-ZZ100FM
15:50:0000:03COMVO107700FMGK LINERMachine Gun Kelly
16:00:00COMVO107300FKZRO/Legal ID CLSXZ100FM
16:00:3001:00COMDA101700FSunday PromoZ100FM
16:01:0000:04CADA493600FELLIS BROOKS/CLSX.OPENEllis Brooks Honda
16:02:0001:01COMNG2896WW1 Net A SpotWESTWOOD ONE
16:02:0019:21509DA000100The Classics H1/T1
16:04:0001:01COMNF2895WW1 Net B SpotWESTWOOD ONE
16:15:0002:00COMDALIVEI15:00 StopSet
16:15:0000:05COMVO101300FQUICK-ZZ100FM
16:16:0000:30CADA105000FELLIS BROOKS HONDAEllis Brooks Honda
16:16:0000:40CADA116900FTHE FIFTH SEASONThe Fifth Season
16:16:0000:59COMVO289600NET SPOT A
16:16:0000:30COMVO109100FZ DAYTIME SWPZ-CHANNEL RADIO
16:17:0017:36509DA000200The Classics H1/T2
16:30:0001:00COMNB2904WW1 Net Newsbreak BZ100FM/WW1 NEWS
16:35:0001:00COMDALIVEI35:00 StopSet
16:35:0000:05COMVO101300FQUICK-ZZ100FM
16:35:0001:00CADA109700FMERCY MEDICAL CENTERMercy Medical Center
16:35:0000:30COMVO109100FZ DAYTIME SWPZ-CHANNEL RADIO
16:36:0016:13509DA000300The Classics H1/T3
16:48:0000:05COMVO101300FQUICK-ZZ100FM
16:48:0000:60CADA102200FCOSCollege of the Siskiyous
16:50:0000:05COMDA100600FZ-WW1NEWS BDZ100FM-WW1 News
16:50:0000:59COMDA290400WW1 NEWSBREAK
16:50:0000:15CADA101600FFUR PURRSONS PET RST/WXFur Purrson's Pet Resort
16:50:0000:30COMVO112000FZ-WEATHERZ100fm Weather
16:50:0000:29ATWEAX00CZ-WX
16:52:0002:30COMDALIVEI52:00 StopSet
17:00:00COMVO107300FKZRO/Legal ID CLSXZ100FM
17:00:3001:00COMDA101700FSunday PromoZ100FM
17:02:0001:01COMNG2896WW1 Net A SpotWESTWOOD ONE
17:02:0016:36510DA000100The Classics H2/T1
17:04:0001:01COMNF2895WW1 Net B SpotWESTWOOD ONE
17:15:0002:00COMDALIVEI15:00 StopSet
17:15:0000:05COMVO101300FQUICK-ZZ100FM
17:15:0001:00CADA110700FSISKIYOU ICE RINKSiskiyou Ice Rink
17:16:0000:59COMVO289600NET SPOT A
17:16:0000:30COMVO109100FZ DAYTIME SWPZ-CHANNEL RADIO
17:17:0017:33510DA000200The Classics H2/T2
17:30:0001:00COMNB2904WW1 Net Newsbreak BZ100FM/WW1 NEWS
17:30:0001:00COMDALIVEI30:00 StopSet
17:30:0000:05COMVO101300FQUICK-ZZ100FM
17:30:0001:00CADA109700FMERCY MEDICAL CENTERMercy Medical Center
17:30:0000:30COMVO109100FZ DAYTIME SWPZ-CHANNEL RADIO
17:31:0013:43510DA000300The Classics H2/T3
17:48:0002:30COMDALIVEI48:00 StopSet
17:48:0000:05COMVO101300FQUICK-ZZ100FM
17:48:0000:41CADA103500FSEARS/YREKASears/Yreka
17:48:0000:30CADA105000FELLIS BROOKS HONDAEllis Brooks Honda
17:50:0000:05COMDA100600FZ-WW1NEWS BDZ100FM-WW1 News
17:50:0000:59COMDA290400WW1 NEWSBREAK
17:50:0000:15CADA101600FFUR PURRSONS PET RST/WXFur Purrson's Pet Resort
17:50:0000:30COMVO112000FZ-WEATHERZ100fm Weather
17:50:0000:29ATWEAX00CZ-WX
17:52:0004:56510DA000400The Classics H2/T4
18:00:00COMVO107300FKZRO/Legal ID CLSXZ100FM
18:00:3001:00COMDA101700FSunday PromoZ100FM
18:02:0001:01COMNG2896WW1 Net A SpotWESTWOOD ONE
18:02:0019:41500DA000100DClark's RRR H1/T1
18:04:0001:01COMNF2895WW1 Net B SpotWESTWOOD ONE
18:15:0002:00COMDALIVEI15:00 StopSet
18:15:0000:05COMVO101300FQUICK-ZZ100FM
18:16:0000:45CADA106800FGREEN HEART COLLECTIVEGreen Heart Collective
18:16:0000:30CADA102800FNORTHLAND CABLE CO.Northland Communications
18:16:0000:59COMVO289600NET SPOT A
18:16:0000:30COMVO109100FZ DAYTIME SWPZ-CHANNEL RADIO
18:17:0013:27500DA000200DClark's RRR H1/T2
18:30:0001:00COMNB2904WW1 Net Newsbreak BZ100FM/WW1 NEWS
18:35:0001:00COMDALIVEI35:00 StopSet
18:35:0000:05COMVO101300FQUICK-ZZ100FM
18:35:0000:39CADA116000FMT.SHASTA VAPEMt. Shasta Vape
18:35:0000:05COMVO101300FQUICK-ZZ100FM
18:36:0016:29500DA000300DClark's RRR H1/T3
18:45:0003:00COMDALIVEI45:00 StopSet
18:45:0000:05COMVO101300FQUICK-ZZ100FM
18:45:0001:00CADA102400FBROOKS AUTOMOTIVEBrooks Complete Automotive
18:47:0003:41500DA000400DClark's RRR H1/T4
18:50:0000:05COMDA100600FZ-WW1NEWS BDZ100FM-WW1 News
18:50:0000:59COMDA290400WW1 NEWSBREAK
18:50:0000:15CADA109900FSOUL CONNECTIONSSoul Connection
18:50:0000:30COMVO112000FZ-WEATHERZ100fm Weather
18:50:0000:29ATWEAX00CZ-WX
18:50:0000:30COMVO109100FZ DAYTIME SWPZ-CHANNEL RADIO
19:00:00COMVO107300FKZRO/Legal ID CLSXZ100FM
19:00:3001:00COMDA101700FSunday PromoZ100FM
19:02:0001:01COMNG2896WW1 Net A SpotWESTWOOD ONE
19:02:0019:02501DA000100DClark's RRR H2/T1
19:04:0001:01COMNF2895WW1 Net B SpotWESTWOOD ONE
19:15:0002:00COMDALIVEI15:00 StopSet
19:15:0000:05COMVO101300FQUICK-ZZ100FM
19:16:0000:59CADA501100FELITE REAL ESTATEElite Real Estate
19:16:0000:59COMVO289600NET SPOT A
19:16:0000:30COMVO109100FZ DAYTIME SWPZ-CHANNEL RADIO
19:17:0013:29501DA000200DClark's RRR H2/T2
19:30:0001:00COMNB2904WW1 Net Newsbreak BZ100FM/WW1 NEWS
19:35:0001:00COMDALIVEI35:00 StopSet
19:35:0000:05COMVO101300FQUICK-ZZ100FM
19:35:0000:30CADA105000FELLIS BROOKS HONDAEllis Brooks Honda
19:35:0000:42CADA110500CJOHN'S SAT/RADIO SHACKJohn's Satellite
19:35:0000:05COMVO101300FQUICK-ZZ100FM
19:36:0016:36501DA000300DClark's RRR H2/T3
19:45:0003:00COMDALIVEI45:00 StopSet
19:45:0000:05COMVO101300FQUICK-ZZ100FM
19:45:0001:00CADA102400FBROOKS AUTOMOTIVEBrooks Complete Automotive
19:47:0004:10501DA000400DClark's RRR H2/T4
19:50:0000:05COMDA100600FZ-WW1NEWS BDZ100FM-WW1 News
19:50:0000:59COMDA290400WW1 NEWSBREAK
19:50:0000:12CADA573000FSHERLOCK MUSIC SHOPSherlock Music
19:50:0000:30COMVO112000FZ-WEATHERZ100fm Weather
19:50:0000:29ATWEAX00CZ-WX
19:50:0000:30COMVO109100FZ DAYTIME SWPZ-CHANNEL RADIO
20:00:00COMVO107300FKZRO/Legal ID CLSXZ100FM
20:00:3001:00COMDA101700FSunday PromoZ100FM
20:01:0000:10CADA549300FELITE/DCRRR OPENElite Real Estate
20:02:0001:01COMNG2896WW1 Net A SpotWESTWOOD ONE
20:02:0017:06502DA000100DClark's RRR H3/T1
20:04:0001:01COMNF2895WW1 Net B SpotWESTWOOD ONE
20:15:0002:00COMDALIVEI15:00 StopSet
20:15:0000:05COMVO101300FQUICK-ZZ100FM
20:16:0000:59CADA501100FELITE REAL ESTATEElite Real Estate
20:16:0001:00CADA110800FTHE CHIMNEY DOCTORThe Chimney Doctor
20:16:0000:30COMVO109100FZ DAYTIME SWPZ-CHANNEL RADIO
20:17:0018:22502DA000200DClark's RRR H3/T2
20:30:0001:00COMNB2904WW1 Net Newsbreak BZ100FM/WW1 NEWS
20:35:0001:00COMDALIVEI35:00 StopSet
20:35:0000:05COMVO101300FQUICK-ZZ100FM
20:35:0000:30CADA105000FELLIS BROOKS HONDAEllis Brooks Honda
20:35:0000:40CADA116900FTHE FIFTH SEASONThe Fifth Season
20:35:0000:05COMVO101300FQUICK-ZZ100FM
20:36:0013:06502DA000300DClark's RRR H3/T3
20:45:0003:00COMDALIVEI45:00 StopSet
20:45:0000:05COMVO101300FQUICK-ZZ100FM
20:45:0000:41CADA103500FSEARS/YREKASears/Yreka
20:45:0000:42CADA110500CJOHN'S SAT/RADIO SHACKJohn's Satellite
20:47:0004:35502DA000400DClark's RRR H3/T4
20:50:0000:05COMDA100600FZ-WW1NEWS BDZ100FM-WW1 News
20:50:0000:59COMDA290400WW1 NEWSBREAK
20:50:0000:15CADA118000FDECLERCK ENTERPRISESTaco Bell WX
20:50:0000:30COMVO112000FZ-WEATHERZ100fm Weather
20:50:0000:29ATWEAX00CZ-WX
20:50:0000:30COMVO109100FZ DAYTIME SWPZ-CHANNEL RADIO
21:00:00COMVO107300FKZRO/Legal ID CLSXZ100FM
21:00:3001:00COMDA101700FSunday PromoZ100FM
21:02:0001:01COMNG2896WW1 Net A SpotWESTWOOD ONE
21:02:0016:23503DA000100DClark's RRR H4/T1
21:04:0001:01COMNF2895WW1 Net B SpotWESTWOOD ONE
21:15:0002:00COMDALIVEI15:00 StopSet
21:15:0000:05COMVO101300FQUICK-ZZ100FM
21:16:0001:00CADA102400FBROOKS AUTOMOTIVEBrooks Complete Automotive
21:16:0001:00CADA103700FSAY CHEESE PIZZASay Cheese Pizza
21:16:0000:30COMVO109100FZ DAYTIME SWPZ-CHANNEL RADIO
21:17:0016:16503DA000200DClark's RRR H4/T2
21:30:0001:00COMNB2904WW1 Net Newsbreak BZ100FM/WW1 NEWS
21:35:0001:00COMDALIVEI35:00 StopSet
21:35:0000:05COMVO101300FQUICK-ZZ100FM
21:35:0000:43CADA116500FEXPRESS EMPLOYMENT PROF.Express Employment Professionals
21:35:0000:40CADA116900FTHE FIFTH SEASONThe Fifth Season
21:35:0000:05COMVO101300FQUICK-ZZ100FM
21:36:0016:48503DA000300DClark's RRR H4/T3
21:45:0003:00COMDALIVEI45:00 StopSet
21:45:0003:48503DA000400DClark's RRR H4/T4
21:45:0000:05COMVO101300FQUICK-ZZ100FM
21:45:0000:39CADA116000FMT.SHASTA VAPEMt. Shasta Vape
21:45:0000:41CADA103500FSEARS/YREKASears/Yreka
21:50:0000:05COMDA100600FZ-WW1NEWS BDZ100FM-WW1 News
21:50:0000:59COMDA290400WW1 NEWSBREAK
21:50:0000:15CADA118000FDECLERCK ENTERPRISESTaco Bell WX
21:50:0000:30COMVO112000FZ-WEATHERZ100fm Weather
21:50:0000:29ATWEAX00CZ-WX
21:50:0000:30COMVO109100FZ DAYTIME SWPZ-CHANNEL RADIO
22:00:00COMVO107300FKZRO/Legal ID CLSXZ100FM
22:00:3001:00COMDA101700FSunday PromoZ100FM
22:01:0001:00COMDALIVEI01:00 StopSet
22:01:0000:11COMVO106100FELWOOD LINERElwood Blues
22:02:0001:01COMNG2896WW1 Net A SpotWESTWOOD ONE
22:02:0015:13505DA000500House of Blues T1
22:03:0003:00COMDALIVEI03:00 StopSet
22:04:0001:01COMNF2895WW1 Net B SpotWESTWOOD ONE
22:15:0002:00COMDALIVEI15:00 StopSet
22:15:0000:05COMVO101300FQUICK-ZZ100FM
22:16:0000:59CADA501100FELITE REAL ESTATEElite Real Estate
22:16:0000:59COMVO289600NET SPOT A
22:16:0000:05COMVO101300FQUICK-ZZ100FM
22:16:0000:11COMVO106100FELWOOD LINERElwood Blues
22:17:0019:15505DA000600House of Blues T2
22:30:0001:00COMNB2904WW1 Net Newsbreak BZ100FM/WW1 NEWS
22:35:0000:05COMVO101300FQUICK-ZZ100FM
22:35:0001:00CADA110700FSISKIYOU ICE RINKSiskiyou Ice Rink
22:35:0000:05COMVO101300FQUICK-ZZ100FM
22:35:0000:11COMVO106100FELWOOD LINERElwood Blues
22:36:0014:49505DA000700House of Blues T3
22:47:0000:05COMVO101300FQUICK-ZZ100FM
22:47:0000:39CADA116000FMT.SHASTA VAPEMt. Shasta Vape
22:47:0000:35CADA102100FSTATE FARM INSURANCERuss Porterfield Insurance
22:50:0000:05COMDA100600FZ-WW1NEWS BDZ100FM-WW1 News
22:50:0000:59COMDA290400WW1 NEWSBREAK
22:50:0000:15CADA109900FSOUL CONNECTIONSSoul Connection
22:50:0000:30COMVO112000FZ-WEATHERZ100fm Weather
22:50:0000:29ATWEAX00CZ-WX
22:50:0000:05COMVO101300FQUICK-ZZ100FM
22:50:0000:11COMVO106100FELWOOD LINERElwood Blues
22:51:0004:16505DA000800House of Blues T4
23:00:00COMVO107300FKZRO/Legal ID CLSXZ100FM
23:00:3001:00COMDA101700FSunday PromoZ100FM
23:01:0000:04CADA493700FELLIS BROOKS/BTL YRS OPNEllis Brooks Honda
23:02:0001:01COMNG2896WW1 Net A SpotWESTWOOD ONE
23:02:0013:40504DA000100Beatle Years T1
23:04:0001:01COMNF2895WW1 Net B SpotWESTWOOD ONE
23:15:0002:30COMDALIVEI15:00 StopSet
23:15:0000:05COMVO101300FQUICK-ZZ100FM
23:16:0000:30CADA105000FELLIS BROOKS HONDAEllis Brooks Honda
23:16:0001:00CADA103700FSAY CHEESE PIZZASay Cheese Pizza
23:16:0000:30COMVO109100FZ DAYTIME SWPZ-CHANNEL RADIO
23:18:0015:38504DA000200Beatle Years T2
23:25:0001:30COMDALIVEI25:00 StopSet
23:25:0000:05COMVO101300FQUICK-ZZ100FM
23:25:0001:00CADA109700FMERCY MEDICAL CENTERMercy Medical Center
23:25:0000:30COMVO109100FZ DAYTIME SWPZ-CHANNEL RADIO
23:27:0012:02504DA000300Beatle Years T3
23:30:0001:00COMNB2904WW1 Net Newsbreak BZ100FM/WW1 NEWS
23:48:0003:00COMDALIVEI48:00 StopSet
23:48:0000:05COMVO101300FQUICK-ZZ100FM
23:48:0000:43CADA116500FEXPRESS EMPLOYMENT PROF.Express Employment Professionals
23:48:0001:00CADA110800FTHE CHIMNEY DOCTORThe Chimney Doctor
23:50:0000:05COMDA100600FZ-WW1NEWS BDZ100FM-WW1 News
23:50:0000:59COMDA290400WW1 NEWSBREAK
23:50:0000:12CADA573000FSHERLOCK MUSIC SHOPSherlock Music
23:50:0000:30COMVO112000FZ-WEATHERZ100fm Weather
23:50:0000:29ATWEAX00CZ-WX
23:50:0000:30COMVO109100FZ DAYTIME SWPZ-CHANNEL RADIO
23:51:0011:21504DA000400Beatle Years T4
23:55:0001:00COMDALIVEI55:00 StopSet
23:59:00COMVO107300FKZRO/Legal ID CLSXZ100FM